Wetterdaten: Woche 04.06.18 - 10.06.18 (KW23)
Datum Zeit Temperatur Luftfeuchte Luftdruck Niederschlag Windrichtung Sonnenschein Solar Wind
04.06.2018 00:00 16,7 C 84 % 1010,0 hPa 0,0 l/m N 0,00 h 0 W/m 0,8 km/h (0 Bft)
04.06.2018 01:00 16,1 C 86 % 1009,5 hPa 0,0 l/m O-NO 0,00 h 0 W/m 2,3 km/h (1 Bft)
04.06.2018 02:00 15,7 C 87 % 1008,9 hPa 0,0 l/m N 0,00 h 0 W/m 0,5 km/h (0 Bft)
04.06.2018 03:00 15,2 C 88 % 1008,4 hPa 0,0 l/m O-NO 0,00 h 0 W/m 3,2 km/h (1 Bft)
04.06.2018 04:00 15,2 C 87 % 1008,2 hPa 0,0 l/m NO 0,00 h 0 W/m 5,2 km/h (1 Bft)
04.06.2018 05:00 14,5 C 90 % 1008,1 hPa 0,0 l/m N 0,08 h 13 W/m 0,0 km/h (0 Bft)
04.06.2018 06:00 14,7 C 91 % 1008,4 hPa 0,0 l/m N 0,08 h 65 W/m 0,0 km/h (0 Bft)
04.06.2018 07:00 16,6 C 86 % 1008,3 hPa 0,0 l/m N-NW 0,83 h 224 W/m 3,1 km/h (1 Bft)
04.06.2018 08:00 18,8 C 79 % 1008,1 hPa 0,0 l/m NO 1,00 h 402 W/m 4,5 km/h (1 Bft)
04.06.2018 09:00 20,3 C 75 % 1008,1 hPa 0,0 l/m N 0,75 h 420 W/m 2,9 km/h (1 Bft)
04.06.2018 10:00 22,3 C 69 % 1007,9 hPa 0,0 l/m O-SO 0,92 h 630 W/m 6,5 km/h (2 Bft)
04.06.2018 11:00 24,6 C 60 % 1007,3 hPa 0,0 l/m O 1,00 h 795 W/m 13,2 km/h (3 Bft)
04.06.2018 12:00 26,2 C 50 % 1007,0 hPa 0,0 l/m O-SO 1,00 h 863 W/m 18,0 km/h (3 Bft)
04.06.2018 13:00 27,0 C 47 % 1006,5 hPa 0,0 l/m O 1,00 h 880 W/m 19,6 km/h (3 Bft)
04.06.2018 14:00 27,9 C 43 % 1006,0 hPa 0,0 l/m O-NO 1,00 h 851 W/m 19,0 km/h (3 Bft)
04.06.2018 15:00 28,3 C 44 % 1005,1 hPa 0,0 l/m O-NO 0,92 h 735 W/m 18,5 km/h (3 Bft)
04.06.2018 16:00 28,1 C 43 % 1004,6 hPa 0,0 l/m NO 0,92 h 625 W/m 20,1 km/h (4 Bft)
04.06.2018 17:00 27,0 C 48 % 1004,5 hPa 0,0 l/m O-NO 0,50 h 328 W/m 18,8 km/h (3 Bft)
04.06.2018 18:00 26,8 C 49 % 1004,5 hPa 0,0 l/m NO 0,92 h 328 W/m 17,6 km/h (3 Bft)
04.06.2018 19:00 25,8 C 50 % 1004,3 hPa 0,0 l/m O-NO 1,00 h 194 W/m 17,0 km/h (3 Bft)
04.06.2018 20:00 24,3 C 51 % 1004,7 hPa 0,0 l/m NO 0,17 h 48 W/m 9,0 km/h (2 Bft)
04.06.2018 21:00 21,2 C 62 % 1005,6 hPa 0,0 l/m SW 0,00 h 6 W/m 14,1 km/h (3 Bft)
04.06.2018 22:00 19,4 C 67 % 1006,6 hPa 0,0 l/m S-SW 0,00 h 0 W/m 5,8 km/h (1 Bft)
04.06.2018 23:00 17,8 C 76 % 1006,8 hPa 0,0 l/m S-SW 0,00 h 0 W/m 2,0 km/h (1 Bft)
05.06.2018 00:00 16,5 C 82 % 1006,4 hPa 0,0 l/m N 0,00 h 0 W/m 0,0 km/h (0 Bft)
05.06.2018 01:00 15,3 C 87 % 1006,1 hPa 0,0 l/m N 0,00 h 0 W/m 0,0 km/h (0 Bft)
05.06.2018 02:00 14,5 C 91 % 1006,0 hPa 0,0 l/m N 0,00 h 0 W/m 0,4 km/h (0 Bft)
05.06.2018 03:00 13,9 C 93 % 1006,3 hPa 0,0 l/m N 0,00 h 0 W/m 0,0 km/h (0 Bft)
05.06.2018 04:00 13,2 C 95 % 1006,5 hPa 0,0 l/m N 0,00 h 0 W/m 0,0 km/h (0 Bft)
05.06.2018 05:00 12,9 C 97 % 1006,7 hPa 0,0 l/m N 0,08 h 15 W/m 0,1 km/h (0 Bft)
05.06.2018 06:00 13,6 C 97 % 1006,9 hPa 0,0 l/m N 0,17 h 72 W/m 0,3 km/h (0 Bft)
05.06.2018 07:00 15,2 C 95 % 1007,4 hPa 0,0 l/m S-SW 0,08 h 141 W/m 5,8 km/h (2 Bft)
05.06.2018 08:00 16,2 C 96 % 1007,6 hPa 0,0 l/m S 0,58 h 299 W/m 8,6 km/h (2 Bft)
05.06.2018 09:00 19,1 C 87 % 1007,4 hPa 0,0 l/m S 0,83 h 486 W/m 9,1 km/h (2 Bft)
05.06.2018 10:00 21,4 C 78 % 1007,1 hPa 0,0 l/m S-SO 0,92 h 640 W/m 6,6 km/h (2 Bft)
05.06.2018 11:00 23,0 C 70 % 1007,1 hPa 0,0 l/m S 1,00 h 804 W/m 6,3 km/h (2 Bft)
05.06.2018 12:00 24,8 C 62 % 1006,9 hPa 0,0 l/m O-SO 1,00 h 874 W/m 10,1 km/h (2 Bft)
05.06.2018 13:00 26,5 C 55 % 1006,6 hPa 0,0 l/m O-SO 1,00 h 936 W/m 13,3 km/h (3 Bft)
05.06.2018 14:00 27,4 C 47 % 1006,0 hPa 0,0 l/m O-SO 0,83 h 776 W/m 14,9 km/h (3 Bft)
05.06.2018 15:00 28,1 C 43 % 1005,4 hPa 0,0 l/m O-NO 1,00 h 803 W/m 13,8 km/h (3 Bft)
05.06.2018 16:00 28,4 C 40 % 1005,0 hPa 0,0 l/m NO 1,00 h 681 W/m 15,3 km/h (3 Bft)
05.06.2018 17:00 28,2 C 41 % 1004,9 hPa 0,0 l/m O-NO 0,83 h 456 W/m 16,5 km/h (3 Bft)
05.06.2018 18:00 27,4 C 42 % 1004,9 hPa 0,0 l/m O-NO 0,83 h 303 W/m 16,4 km/h (3 Bft)
05.06.2018 19:00 25,7 C 48 % 1005,0 hPa 0,0 l/m O-NO 0,33 h 123 W/m 13,8 km/h (3 Bft)
05.06.2018 20:00 24,0 C 54 % 1005,4 hPa 0,0 l/m O-NO 0,33 h 53 W/m 6,8 km/h (2 Bft)
05.06.2018 21:00 22,0 C 61 % 1006,2 hPa 0,0 l/m N 0,08 h 10 W/m 0,3 km/h (0 Bft)
05.06.2018 22:00 19,4 C 70 % 1006,7 hPa 0,0 l/m N 0,00 h 0 W/m 0,4 km/h (0 Bft)
05.06.2018 23:00 18,2 C 75 % 1006,6 hPa 0,0 l/m N 0,00 h 0 W/m 1,3 km/h (1 Bft)
06.06.2018 00:00 17,5 C 79 % 1006,6 hPa 0,0 l/m N 0,00 h 0 W/m 0,4 km/h (0 Bft)
06.06.2018 01:00 16,9 C 81 % 1006,6 hPa 0,0 l/m N 0,00 h 0 W/m 0,3 km/h (0 Bft)
06.06.2018 02:00 16,2 C 83 % 1006,4 hPa 0,0 l/m N 0,00 h 0 W/m 0,4 km/h (0 Bft)
06.06.2018 03:00 15,9 C 83 % 1006,2 hPa 0,0 l/m O-NO 0,00 h 0 W/m 6,3 km/h (2 Bft)
06.06.2018 04:00 15,1 C 87 % 1006,6 hPa 0,0 l/m N 0,00 h 0 W/m 0,5 km/h (0 Bft)
06.06.2018 05:00 14,4 C 91 % 1007,0 hPa 0,0 l/m N 0,08 h 14 W/m 0,1 km/h (0 Bft)
06.06.2018 06:00 15,0 C 90 % 1007,5 hPa 0,0 l/m N 0,25 h 74 W/m 0,0 km/h (0 Bft)
06.06.2018 07:00 16,7 C 85 % 1007,9 hPa 0,0 l/m N 0,83 h 220 W/m 0,8 km/h (0 Bft)
06.06.2018 08:00 18,2 C 80 % 1008,2 hPa 0,0 l/m N 1,00 h 340 W/m 1,3 km/h (1 Bft)
06.06.2018 09:00 19,2 C 79 % 1008,3 hPa 0,0 l/m SW 0,83 h 407 W/m 3,1 km/h (1 Bft)
06.06.2018 10:00 21,0 C 74 % 1008,4 hPa 0,0 l/m N 0,92 h 554 W/m 1,2 km/h (1 Bft)
06.06.2018 11:00 22,6 C 70 % 1008,5 hPa 0,0 l/m SW 0,92 h 640 W/m 1,7 km/h (1 Bft)
06.06.2018 12:00 23,0 C 69 % 1008,7 hPa 0,0 l/m W 0,42 h 551 W/m 1,5 km/h (1 Bft)
06.06.2018 13:00 25,5 C 56 % 1008,4 hPa 0,0 l/m O 1,00 h 782 W/m 9,4 km/h (2 Bft)
06.06.2018 14:00 27,0 C 51 % 1008,0 hPa 0,0 l/m O 1,00 h 853 W/m 13,8 km/h (3 Bft)
06.06.2018 15:00 28,1 C 45 % 1007,5 hPa 0,0 l/m O-SO 1,00 h 819 W/m 13,6 km/h (3 Bft)
06.06.2018 16:00 28,2 C 45 % 1007,0 hPa 0,0 l/m O 0,50 h 523 W/m 12,8 km/h (3 Bft)
06.06.2018 17:00 27,0 C 48 % 1007,3 hPa 0,0 l/m O 0,25 h 245 W/m 9,1 km/h (2 Bft)
06.06.2018 18:00 24,4 C 58 % 1007,4 hPa 0,0 l/m W 0,00 h 45 W/m 13,7 km/h (3 Bft)
06.06.2018 19:00 20,1 C 71 % 1008,9 hPa 0,0 l/m O-NO 0,00 h 11 W/m 15,4 km/h (3 Bft)
06.06.2018 20:00 18,8 C 79 % 1008,9 hPa 0,0 l/m S-SW 0,00 h 11 W/m 4,7 km/h (1 Bft)
06.06.2018 21:00 18,3 C 82 % 1009,5 hPa 0,0 l/m N 0,00 h 0 W/m 6,6 km/h (2 Bft)
06.06.2018 22:00 18,1 C 85 % 1010,1 hPa 0,0 l/m NW 0,00 h 0 W/m 0,7 km/h (0 Bft)
06.06.2018 23:00 17,6 C 89 % 1010,4 hPa 0,0 l/m N 0,00 h 0 W/m 0,5 km/h (0 Bft)
07.06.2018 00:00 16,6 C 91 % 1010,0 hPa 0,0 l/m N 0,00 h 0 W/m 0,3 km/h (0 Bft)
07.06.2018 01:00 15,4 C 94 % 1010,0 hPa 0,0 l/m N 0,00 h 0 W/m 0,1 km/h (0 Bft)
07.06.2018 02:00 15,1 C 95 % 1010,2 hPa 0,0 l/m N 0,00 h 0 W/m 0,1 km/h (0 Bft)
07.06.2018 03:00 14,8 C 95 % 1010,5 hPa 0,0 l/m N 0,00 h 0 W/m 0,5 km/h (0 Bft)
07.06.2018 04:00 14,9 C 96 % 1010,9 hPa 0,0 l/m N 0,00 h 0 W/m 0,0 km/h (0 Bft)
07.06.2018 05:00 15,0 C 97 % 1011,4 hPa 0,0 l/m N 0,00 h 11 W/m 0,0 km/h (0 Bft)
07.06.2018 06:00 15,3 C 97 % 1011,9 hPa 0,0 l/m NW 0,00 h 29 W/m 1,1 km/h (0 Bft)
07.06.2018 07:00 16,2 C 97 % 1012,4 hPa 0,0 l/m NW 0,00 h 76 W/m 0,8 km/h (0 Bft)
07.06.2018 08:00 17,4 C 94 % 1012,6 hPa 0,0 l/m W 0,00 h 181 W/m 7,0 km/h (2 Bft)
07.06.2018 09:00 18,6 C 89 % 1012,6 hPa 0,0 l/m W 0,00 h 255 W/m 6,0 km/h (2 Bft)
07.06.2018 10:00 19,3 C 88 % 1012,6 hPa 0,0 l/m SW 0,00 h 286 W/m 9,9 km/h (2 Bft)
07.06.2018 11:00 20,0 C 85 % 1012,5 hPa 0,0 l/m SW 0,00 h 347 W/m 11,0 km/h (2 Bft)
07.06.2018 12:00 20,8 C 81 % 1012,7 hPa 0,0 l/m SW 0,08 h 399 W/m 9,5 km/h (2 Bft)
07.06.2018 13:00 21,5 C 79 % 1012,5 hPa 0,0 l/m SW 0,33 h 473 W/m 10,5 km/h (2 Bft)
07.06.2018 14:00 22,1 C 76 % 1011,9 hPa 0,0 l/m S-SW 0,42 h 516 W/m 6,5 km/h (2 Bft)
07.06.2018 15:00 23,6 C 70 % 1011,2 hPa 0,0 l/m S-SW 0,92 h 773 W/m 7,2 km/h (2 Bft)
07.06.2018 16:00 24,7 C 64 % 1010,7 hPa 0,0 l/m SO 0,83 h 612 W/m 6,8 km/h (2 Bft)
07.06.2018 17:00 24,1 C 65 % 1010,6 hPa 0,0 l/m O-SO 0,33 h 278 W/m 9,5 km/h (2 Bft)
07.06.2018 18:00 23,6 C 66 % 1010,1 hPa 0,0 l/m O-SO 0,17 h 207 W/m 8,6 km/h (2 Bft)
07.06.2018 19:00 23,0 C 69 % 1010,5 hPa 0,0 l/m O-SO 0,58 h 146 W/m 3,6 km/h (1 Bft)
07.06.2018 20:00 21,6 C 77 % 1010,5 hPa 0,0 l/m O 0,00 h 41 W/m 0,0 km/h (0 Bft)
07.06.2018 21:00 19,1 C 77 % 1010,8 hPa 0,0 l/m N 0,00 h 5 W/m 9,0 km/h (2 Bft)
07.06.2018 22:00 17,9 C 78 % 1010,8 hPa 0,0 l/m N-NW 0,00 h 0 W/m 12,8 km/h (3 Bft)
07.06.2018 23:00 16,8 C 85 % 1010,9 hPa 0,0 l/m N-NW 0,00 h 0 W/m 5,5 km/h (1 Bft)
08.06.2018 00:00 15,7 C 89 % 1011,2 hPa 0,0 l/m N 0,00 h 0 W/m 0,5 km/h (0 Bft)
08.06.2018 01:00 15,1 C 92 % 1010,8 hPa 0,0 l/m N 0,00 h 0 W/m 0,0 km/h (0 Bft)
08.06.2018 02:00 14,8 C 93 % 1010,2 hPa 0,0 l/m N 0,00 h 0 W/m 0,0 km/h (0 Bft)
08.06.2018 03:00 14,1 C 94 % 1009,8 hPa 0,0 l/m N-NW 0,00 h 0 W/m 0,9 km/h (0 Bft)
08.06.2018 04:00 14,0 C 95 % 1010,2 hPa 0,0 l/m N-NW 0,00 h 0 W/m 3,4 km/h (1 Bft)
08.06.2018 05:00 13,9 C 95 % 1010,1 hPa 0,0 l/m N-NW 0,08 h 13 W/m 3,7 km/h (1 Bft)
08.06.2018 06:00 14,3 C 95 % 1010,1 hPa 0,0 l/m N-NW 0,17 h 63 W/m 6,8 km/h (2 Bft)
08.06.2018 07:00 15,4 C 93 % 1010,7 hPa 0,0 l/m N-NW 0,00 h 104 W/m 1,6 km/h (1 Bft)
08.06.2018 08:00 16,7 C 91 % 1010,5 hPa 0,0 l/m N 0,50 h 302 W/m 2,0 km/h (1 Bft)
08.06.2018 09:00 19,7 C 81 % 1010,0 hPa 0,0 l/m O-NO 0,83 h 475 W/m 5,9 km/h (2 Bft)
08.06.2018 10:00 21,4 C 77 % 1009,8 hPa 0,0 l/m O-NO 0,83 h 584 W/m 9,7 km/h (2 Bft)
08.06.2018 11:00 22,8 C 72 % 1009,6 hPa 0,0 l/m NO 0,50 h 584 W/m 11,0 km/h (2 Bft)
08.06.2018 12:00 23,8 C 68 % 1009,1 hPa 0,0 l/m O-NO 0,67 h 689 W/m 14,6 km/h (3 Bft)
08.06.2018 13:00 25,0 C 65 % 1008,4 hPa 0,0 l/m NO 0,92 h 951 W/m 13,8 km/h (3 Bft)
08.06.2018 14:00 26,3 C 58 % 1007,8 hPa 0,0 l/m O-NO 0,83 h 806 W/m 16,1 km/h (3 Bft)
08.06.2018 15:00 26,8 C 56 % 1006,8 hPa 0,0 l/m O-NO 0,67 h 697 W/m 17,7 km/h (3 Bft)
08.06.2018 16:00 26,0 C 57 % 1006,3 hPa 0,0 l/m N-NO 0,50 h 412 W/m 18,1 km/h (3 Bft)
08.06.2018 17:00 23,7 C 65 % 1006,4 hPa 0,0 l/m SW 0,08 h 149 W/m 17,7 km/h (3 Bft)
08.06.2018 18:00 19,5 C 79 % 1007,1 hPa 0,0 l/m W-SW 0,00 h 48 W/m 16,8 km/h (3 Bft)
08.06.2018 19:00 18,3 C 86 % 1007,7 hPa 6,4 l/m W-SW 0,00 h 17 W/m 11,7 km/h (2 Bft)
08.06.2018 20:00 17,0 C 95 % 1008,2 hPa 0,4 l/m N 0,00 h 5 W/m 0,9 km/h (0 Bft)
08.06.2018 21:00 16,5 C 96 % 1008,4 hPa 0,4 l/m W-SW 0,00 h 0 W/m 1,3 km/h (1 Bft)
08.06.2018 22:00 16,4 C 98 % 1009,1 hPa 0,2 l/m W-SW 0,00 h 0 W/m 3,3 km/h (1 Bft)
08.06.2018 23:00 15,8 C 98 % 1009,1 hPa 0,0 l/m N 0,00 h 0 W/m 0,4 km/h (0 Bft)
09.06.2018 00:00 15,6 C 98 % 1009,1 hPa 0,0 l/m N 0,00 h 0 W/m 1,1 km/h (0 Bft)
09.06.2018 01:00 15,3 C 99 % 1009,4 hPa 0,0 l/m W-SW 0,00 h 0 W/m 0,7 km/h (0 Bft)
09.06.2018 02:00 15,3 C 99 % 1009,4 hPa 0,0 l/m W-SW 0,00 h 0 W/m 2,5 km/h (1 Bft)
09.06.2018 03:00 15,0 C 99 % 1009,2 hPa 0,0 l/m W-SW 0,00 h 0 W/m 0,1 km/h (0 Bft)
09.06.2018 04:00 15,0 C 99 % 1009,0 hPa 0,0 l/m W-SW 0,00 h 0 W/m 2,8 km/h (1 Bft)
09.06.2018 05:00 14,8 C 99 % 1009,2 hPa 0,0 l/m W-SW 0,00 h 8 W/m 5,0 km/h (1 Bft)
09.06.2018 06:00 15,3 C 100 % 1009,7 hPa 0,0 l/m SW 0,00 h 40 W/m 12,1 km/h (2 Bft)
09.06.2018 07:00 15,9 C 99 % 1009,8 hPa 0,0 l/m SW 0,08 h 114 W/m 6,8 km/h (2 Bft)
09.06.2018 08:00 16,4 C 98 % 1010,3 hPa 0,0 l/m SW 0,00 h 81 W/m 1,7 km/h (1 Bft)
09.06.2018 09:00 17,0 C 97 % 1010,3 hPa 0,0 l/m W-SW 0,00 h 148 W/m 2,3 km/h (1 Bft)
09.06.2018 10:00 19,1 C 90 % 1010,0 hPa 0,2 l/m W-SW 0,75 h 603 W/m 14,1 km/h (3 Bft)
09.06.2018 11:00 21,1 C 82 % 1010,0 hPa 0,0 l/m W-SW 0,58 h 620 W/m 11,0 km/h (2 Bft)
09.06.2018 12:00 22,0 C 80 % 1009,9 hPa 0,0 l/m W-SW 0,75 h 744 W/m 14,5 km/h (3 Bft)
09.06.2018 13:00 23,6 C 73 % 1009,1 hPa 0,0 l/m SW 0,92 h 934 W/m 11,8 km/h (2 Bft)
09.06.2018 14:00 24,6 C 69 % 1008,8 hPa 0,0 l/m SW 0,75 h 814 W/m 7,2 km/h (2 Bft)
09.06.2018 15:00 24,4 C 69 % 1008,3 hPa 0,0 l/m W-SW 0,42 h 428 W/m 1,7 km/h (1 Bft)
09.06.2018 16:00 24,9 C 66 % 1007,9 hPa 0,0 l/m W-SW 0,50 h 478 W/m 2,5 km/h (1 Bft)
09.06.2018 17:00 25,2 C 65 % 1007,8 hPa 0,0 l/m W-NW 0,50 h 356 W/m 9,8 km/h (2 Bft)
09.06.2018 18:00 23,3 C 73 % 1007,9 hPa 0,0 l/m W-NW 0,17 h 179 W/m 9,3 km/h (2 Bft)
09.06.2018 19:00 23,9 C 71 % 1008,3 hPa 0,0 l/m NW 1,00 h 217 W/m 11,6 km/h (2 Bft)
09.06.2018 20:00 22,6 C 75 % 1008,4 hPa 0,0 l/m N-NW 0,25 h 48 W/m 7,5 km/h (2 Bft)
09.06.2018 21:00 20,3 C 81 % 1008,8 hPa 0,0 l/m N 0,08 h 8 W/m 1,2 km/h (1 Bft)
09.06.2018 22:00 18,3 C 87 % 1009,4 hPa 0,0 l/m N 0,00 h 0 W/m 0,1 km/h (0 Bft)
09.06.2018 23:00 17,6 C 92 % 1009,9 hPa 0,0 l/m N 0,00 h 0 W/m 0,0 km/h (0 Bft)
10.06.2018 00:00 16,8 C 94 % 1010,1 hPa 0,0 l/m N 0,00 h 0 W/m 0,0 km/h (0 Bft)
10.06.2018 01:00 16,6 C 96 % 1010,2 hPa 0,0 l/m NW 0,00 h 0 W/m 0,0 km/h (0 Bft)
10.06.2018 02:00 16,2 C 96 % 1009,9 hPa 0,0 l/m NW 0,00 h 0 W/m 2,4 km/h (1 Bft)
10.06.2018 03:00 15,7 C 97 % 1009,5 hPa 0,0 l/m N 0,00 h 0 W/m 0,0 km/h (0 Bft)
10.06.2018 04:00 15,4 C 97 % 1009,2 hPa 0,0 l/m N 0,00 h 0 W/m 0,0 km/h (0 Bft)
10.06.2018 05:00 15,0 C 98 % 1009,1 hPa 0,0 l/m N 0,08 h 12 W/m 0,0 km/h (0 Bft)
10.06.2018 06:00 15,3 C 98 % 1009,3 hPa 0,0 l/m N 0,08 h 75 W/m 0,0 km/h (0 Bft)
10.06.2018 07:00 16,8 C 98 % 1009,3 hPa 0,0 l/m W-NW 0,75 h 213 W/m 7,4 km/h (2 Bft)
10.06.2018 08:00 19,5 C 93 % 1009,4 hPa 0,0 l/m W-SW 1,00 h 399 W/m 9,7 km/h (2 Bft)
10.06.2018 09:00 21,6 C 84 % 1009,5 hPa 0,0 l/m W-SW 0,92 h 540 W/m 10,2 km/h (2 Bft)
10.06.2018 10:00 23,2 C 76 % 1009,2 hPa 0,0 l/m SW 0,83 h 717 W/m 15,4 km/h (3 Bft)
10.06.2018 11:00 23,8 C 73 % 1009,1 hPa 0,0 l/m W-SW 0,75 h 734 W/m 16,0 km/h (3 Bft)
10.06.2018 12:00 25,3 C 65 % 1008,8 hPa 0,0 l/m W-SW 1,00 h 964 W/m 17,2 km/h (3 Bft)
10.06.2018 13:00 26,3 C 60 % 1008,5 hPa 0,0 l/m SW 0,83 h 899 W/m 14,8 km/h (3 Bft)
10.06.2018 14:00 26,0 C 61 % 1008,3 hPa 0,0 l/m N-NO 0,33 h 529 W/m 11,4 km/h (2 Bft)
10.06.2018 15:00 24,4 C 71 % 1008,4 hPa 0,0 l/m N 0,17 h 347 W/m 3,9 km/h (1 Bft)
10.06.2018 16:00 25,7 C 67 % 1008,3 hPa 0,0 l/m NW 0,50 h 495 W/m 7,0 km/h (2 Bft)
10.06.2018 17:00 25,5 C 61 % 1008,0 hPa 0,0 l/m W-NW 0,92 h 439 W/m 6,7 km/h (2 Bft)
10.06.2018 18:00 25,8 C 62 % 1007,6 hPa 0,0 l/m N 1,00 h 331 W/m 1,6 km/h (1 Bft)
10.06.2018 19:00 25,3 C 64 % 1007,4 hPa 0,0 l/m N 0,75 h 167 W/m 0,4 km/h (0 Bft)
10.06.2018 20:00 23,1 C 75 % 1007,5 hPa 0,0 l/m N 0,00 h 29 W/m 0,1 km/h (0 Bft)
10.06.2018 21:00 20,8 C 84 % 1007,9 hPa 0,0 l/m N 0,08 h 10 W/m 0,0 km/h (0 Bft)
10.06.2018 22:00 19,3 C 91 % 1008,2 hPa 0,0 l/m N 0,00 h 0 W/m 0,0 km/h (0 Bft)
10.06.2018 23:00 18,8 C 93 % 1008,7 hPa 0,0 l/m N 0,00 h 0 W/m 0,0 km/h (0 Bft)
Min-Datum _ 05.06.18 05.06.18 04.06.18 - - - - 04.06.18
_ Min-Zeit 05:05 16:20 19:10 - - - - 00:00
Minimum _ 12,9 C 39 % 1004,3 hPa - - - - 0,0 km/h (0 Bft)
Max-Datum _ 05.06.18 09.06.18 07.06.18 08.06.18 - 04.06.18 10.06.18 06.06.18
_ Max-Zeit 17:05 00:45 08:55 19:30 - 05:40 14:05 18:25
Maximum _ 28,8 C 100 % 1012,8 hPa 6,4 l/m - 0,08 h 1134 W/m 27,4 km/h
W (4 Bft)
Durchschnitt _ 20,1 C 78 % 1008,5 hPa #7,6 l/m O-NO #59:00 h 378 W/m 6,3 km/h (2 Bft)